Time;durP1;ratioP1;P1;durP2;ratioP2;P2;SDS_P1;SDS_P2;PMS_P1;PMS_P2;Temp;Humidity;BMP_temperature;BMP_pressure;BME280_temperature;BME280_humidity;BME280_pressure;Samples;Min_cycle;Max_cycle;Signal;HPM_P1;HPM_P2
2021/08/29 00:02:19;;;;;;;11.30;7.78;;;16.30;57.20;;;;;;4993192;28;20237;-56
2021/08/29 00:04:50;;;;;;;11.73;7.78;;;16.30;57.20;;;;;;4993468;28;20497;-44
2021/08/29 00:07:20;;;;;;;13.48;9.23;;;16.30;57.10;;;;;;4992574;28;20284;-46
2021/08/29 00:09:51;;;;;;;15.70;9.10;;;16.30;57.10;;;;;;4993537;28;20275;-49
2021/08/29 00:12:21;;;;;;;15.82;8.90;;;16.30;57.10;;;;;;4992719;28;20229;-45
2021/08/29 00:14:52;;;;;;;13.10;8.57;;;16.30;57.20;;;;;;4991839;28;20248;-53
2021/08/29 00:17:24;;;;;;;14.20;8.48;;;16.30;57.20;;;;;;4992733;28;20248;-46
2021/08/29 00:19:55;;;;;;;13.43;9.10;;;16.30;57.20;;;;;;4992336;28;20233;-45
2021/08/29 00:22:25;;;;;;;13.30;8.93;;;16.40;57.20;;;;;;4993020;28;20694;-46
2021/08/29 00:24:55;;;;;;;14.27;9.00;;;16.40;57.20;;;;;;4992290;28;20237;-59
2021/08/29 00:27:26;;;;;;;12.82;8.27;;;16.40;57.30;;;;;;4992749;28;20771;-46
2021/08/29 00:29:57;;;;;;;13.55;8.77;;;16.40;57.30;;;;;;4992852;28;20636;-46
2021/08/29 00:32:29;;;;;;;12.68;8.68;;;16.40;57.40;;;;;;4992175;28;20198;-47
2021/08/29 00:34:59;;;;;;;11.73;8.18;;;16.40;57.40;;;;;;4991551;28;20221;-47
2021/08/29 00:37:30;;;;;;;19.70;12.30;;;16.40;57.40;;;;;;4993197;28;20256;-46
2021/08/29 00:40:00;;;;;;;16.63;11.68;;;16.40;57.50;;;;;;4992743;28;20236;-46
2021/08/29 00:42:31;;;;;;;19.45;12.65;;;16.50;57.60;;;;;;4992672;28;20288;-47
2021/08/29 00:45:01;;;;;;;21.13;14.48;;;16.50;57.60;;;;;;4991430;28;20233;-52
2021/08/29 00:47:36;;;;;;;22.70;19.05;;;16.50;57.60;;;;;;4992535;28;20721;-57
2021/08/29 00:50:07;;;;;;;18.27;14.15;;;16.50;57.60;;;;;;4992440;28;20360;-50
2021/08/29 00:52:40;;;;;;;17.35;13.70;;;16.50;57.60;;;;;;4991824;28;20194;-45
2021/08/29 00:55:11;;;;;;;17.92;13.05;;;16.50;57.50;;;;;;4992530;28;20201;-53
2021/08/29 00:57:42;;;;;;;24.60;17.42;;;16.50;57.50;;;;;;4991805;28;20623;-54
2021/08/29 01:00:14;;;;;;;21.77;14.95;;;16.50;57.60;;;;;;4991341;28;20204;-54
2021/08/29 01:02:46;;;;;;;17.95;14.57;;;16.50;57.70;;;;;;5009772;22;20228;-56
2021/08/29 01:05:19;;;;;;;18.05;13.50;;;16.50;57.60;;;;;;5012806;28;20228;-46
2021/08/29 01:07:52;;;;;;;17.35;12.52;;;16.50;57.60;;;;;;5011399;28;20328;-58
2021/08/29 01:10:24;;;;;;;15.23;11.82;;;16.50;57.60;;;;;;5011626;28;20718;-55
2021/08/29 01:12:55;;;;;;;16.10;11.80;;;16.50;57.60;;;;;;5010777;28;20224;-61
2021/08/29 01:15:26;;;;;;;18.05;13.00;;;16.50;57.60;;;;;;5010572;28;20247;-61
2021/08/29 01:18:00;;;;;;;15.73;11.30;;;16.50;57.60;;;;;;5011228;28;20251;-57
2021/08/29 01:20:33;;;;;;;15.93;11.43;;;16.50;57.60;;;;;;5010562;28;20256;-48
2021/08/29 01:23:04;;;;;;;14.88;11.43;;;16.50;57.60;;;;;;5010101;28;20236;-59
2021/08/29 01:25:35;;;;;;;14.15;10.80;;;16.60;57.50;;;;;;5010659;28;20224;-50
2021/08/29 01:28:10;;;;;;;14.18;10.52;;;16.50;57.50;;;;;;5011889;28;20300;-59
2021/08/29 01:30:42;;;;;;;15.55;10.60;;;16.60;57.40;;;;;;5011097;28;20264;-50
2021/08/29 01:33:12;;;;;;;15.10;9.93;;;16.60;57.50;;;;;;5011888;28;20288;-53
2021/08/29 01:35:43;;;;;;;14.40;9.25;;;16.60;57.50;;;;;;5010822;28;20232;-60
2021/08/29 01:38:13;;;;;;;12.18;8.98;;;16.60;57.60;;;;;;5009881;28;20256;-50
2021/08/29 01:40:44;;;;;;;12.07;8.48;;;16.60;57.60;;;;;;5009145;28;20232;-54
2021/08/29 01:43:14;;;;;;;15.02;10.00;;;16.60;57.60;;;;;;5011115;28;20197;-60
2021/08/29 01:45:47;;;;;;;11.80;8.30;;;16.60;57.60;;;;;;5010851;28;20263;-50
2021/08/29 01:48:17;;;;;;;12.13;9.02;;;16.60;57.70;;;;;;5009999;28;20296;-57
2021/08/29 01:50:47;;;;;;;14.32;9.68;;;16.60;57.70;;;;;;5009687;28;20315;-53
2021/08/29 01:53:18;;;;;;;12.30;9.30;;;16.60;57.70;;;;;;5010672;28;20617;-56
2021/08/29 01:55:49;;;;;;;11.23;8.50;;;16.60;57.70;;;;;;5010949;28;20606;-46
2021/08/29 01:58:20;;;;;;;10.90;8.02;;;16.70;57.70;;;;;;5010015;28;20217;-61
2021/08/29 02:00:53;;;;;;;12.70;8.85;;;16.60;57.60;;;;;;5010894;28;20263;-58
2021/08/29 02:03:24;;;;;;;12.75;9.45;;;16.60;57.50;;;;;;5010674;28;20232;-50
2021/08/29 02:05:56;;;;;;;12.43;8.85;;;16.60;57.50;;;;;;5010922;28;20233;-54
2021/08/29 02:08:27;;;;;;;10.95;8.40;;;16.70;57.50;;;;;;5008866;28;20300;-60
2021/08/29 02:10:57;;;;;;;11.05;8.18;;;16.60;57.40;;;;;;5010189;28;20316;-53
2021/08/29 02:13:28;;;;;;;11.20;8.18;;;16.60;57.40;;;;;;5010406;28;20236;-60
2021/08/29 02:16:04;;;;;;;10.88;8.15;;;16.60;57.40;;;;;;5010262;28;20239;-43
2021/08/29 02:18:36;;;;;;;8.43;7.30;;;16.60;57.40;;;;;;5010273;28;20248;-56
2021/08/29 02:21:07;;;;;;;10.55;7.95;;;16.60;57.40;;;;;;5010252;28;20232;-45
2021/08/29 02:23:37;;;;;;;10.35;8.45;;;16.60;57.30;;;;;;5010543;28;20197;-53
2021/08/29 02:26:07;;;;;;;13.13;8.52;;;16.60;57.40;;;;;;5010290;28;20227;-56
2021/08/29 02:28:38;;;;;;;11.52;8.15;;;16.60;57.40;;;;;;5010452;28;20256;-49
2021/08/29 02:31:10;;;;;;;11.05;8.73;;;16.60;57.40;;;;;;5009038;28;20308;-50
2021/08/29 02:33:41;;;;;;;9.88;8.32;;;16.60;57.50;;;;;;5010389;28;20201;-60
2021/08/29 02:36:11;;;;;;;10.38;7.50;;;16.60;57.40;;;;;;5009991;28;20310;-48
2021/08/29 02:38:41;;;;;;;9.15;7.50;;;16.60;57.40;;;;;;5012522;28;20247;-59
2021/08/29 02:41:12;;;;;;;11.35;9.20;;;16.60;57.60;;;;;;5018903;28;20235;-43
2021/08/29 02:43:42;;;;;;;14.02;9.48;;;16.60;57.70;;;;;;5033755;28;20297;-55
2021/08/29 02:46:15;;;;;;;9.55;8.15;;;16.70;57.80;;;;;;5034452;28;20223;-50
2021/08/29 02:48:46;;;;;;;10.48;8.15;;;16.70;57.80;;;;;;5033658;28;20252;-45
2021/08/29 02:51:16;;;;;;;10.30;7.60;;;16.70;57.70;;;;;;5032868;28;20227;-53
2021/08/29 02:53:47;;;;;;;10.95;8.13;;;16.70;57.70;;;;;;5033934;28;20204;-49
2021/08/29 02:56:17;;;;;;;10.18;7.80;;;16.70;57.80;;;;;;5034637;28;20284;-46
2021/08/29 02:58:48;;;;;;;12.05;7.55;;;16.70;57.90;;;;;;5033839;28;20251;-49
2021/08/29 03:01:20;;;;;;;11.55;7.75;;;16.70;57.90;;;;;;5033902;28;20797;-46
2021/08/29 03:03:51;;;;;;;10.30;7.60;;;16.70;57.90;;;;;;5043848;22;20327;-48
2021/08/29 03:06:21;;;;;;;9.15;7.05;;;16.70;57.80;;;;;;5033426;28;20196;-57
2021/08/29 03:08:53;;;;;;;8.85;7.20;;;16.70;57.80;;;;;;5045907;28;20212;-48
2021/08/29 03:11:23;;;;;;;11.00;7.25;;;16.70;57.70;;;;;;5051120;28;20726;-54
2021/08/29 03:13:54;;;;;;;8.52;7.28;;;16.70;57.60;;;;;;5052962;28;20231;-48
2021/08/29 03:16:26;;;;;;;9.75;7.25;;;16.70;57.70;;;;;;5036139;28;20634;-55
2021/08/29 03:18:56;;;;;;;10.23;7.32;;;16.70;57.70;;;;;;5033608;28;20323;-57
2021/08/29 03:21:27;;;;;;;8.05;6.63;;;16.70;57.60;;;;;;5032584;28;20227;-57
2021/08/29 03:23:58;;;;;;;7.85;6.55;;;16.70;57.70;;;;;;5033492;28;20636;-53
2021/08/29 03:26:29;;;;;;;8.10;6.68;;;16.70;57.60;;;;;;5044842;28;20283;-50
2021/08/29 03:29:00;;;;;;;9.25;6.63;;;16.70;57.60;;;;;;5052410;28;20282;-50
2021/08/29 03:31:34;;;;;;;8.50;6.72;;;16.70;57.60;;;;;;5053551;28;20262;-52
2021/08/29 03:34:05;;;;;;;8.52;6.78;;;16.70;57.60;;;;;;5053452;28;20288;-53
2021/08/29 03:36:35;;;;;;;8.30;6.40;;;16.70;57.60;;;;;;5053530;28;20282;-48
2021/08/29 03:39:06;;;;;;;8.77;6.07;;;16.70;57.60;;;;;;5052852;28;20219;-50
2021/08/29 03:41:36;;;;;;;7.88;5.90;;;16.70;57.60;;;;;;5052269;28;20235;-55
2021/08/29 03:44:07;;;;;;;9.00;7.13;;;16.70;57.60;;;;;;5052655;28;20234;-51
2021/08/29 03:46:40;;;;;;;8.73;6.38;;;16.70;57.60;;;;;;5053062;28;20196;-54
2021/08/29 03:49:11;;;;;;;8.75;6.20;;;16.70;57.50;;;;;;5051767;28;20740;-54
2021/08/29 03:51:42;;;;;;;8.65;6.30;;;16.70;57.50;;;;;;5052443;28;20319;-57
2021/08/29 03:54:13;;;;;;;8.60;6.72;;;16.70;57.50;;;;;;5052860;28;20605;-56
2021/08/29 03:56:44;;;;;;;8.85;6.70;;;16.70;57.50;;;;;;5051026;28;20198;-50
2021/08/29 03:59:14;;;;;;;7.60;6.32;;;16.70;57.50;;;;;;5050901;28;20299;-53
2021/08/29 04:01:47;;;;;;;9.18;6.95;;;16.70;57.50;;;;;;5051714;28;20235;-58
2021/08/29 04:04:18;;;;;;;8.07;6.50;;;16.70;57.50;;;;;;5052389;28;20231;-56
2021/08/29 04:06:48;;;;;;;7.10;6.22;;;16.70;57.50;;;;;;5052667;28;20287;-49
2021/08/29 04:09:19;;;;;;;7.60;6.15;;;16.70;57.40;;;;;;5052807;28;20251;-56
2021/08/29 04:11:49;;;;;;;8.10;6.55;;;16.70;57.50;;;;;;5051681;28;20316;-52
2021/08/29 04:14:20;;;;;;;8.80;7.00;;;16.70;57.50;;;;;;5051908;28;20619;-53
2021/08/29 04:16:52;;;;;;;12.80;8.60;;;16.70;57.40;;;;;;5050597;28;20234;-50
2021/08/29 04:19:23;;;;;;;8.27;6.78;;;16.70;57.40;;;;;;5051937;28;20619;-57
2021/08/29 04:21:54;;;;;;;10.05;7.70;;;16.70;57.40;;;;;;5052611;28;20196;-48
2021/08/29 04:24:24;;;;;;;9.38;6.55;;;16.70;57.30;;;;;;5052133;28;20695;-57
2021/08/29 04:26:55;;;;;;;7.72;6.22;;;16.70;57.40;;;;;;5049636;28;20220;-55
2021/08/29 04:29:26;;;;;;;11.25;7.70;;;16.70;57.30;;;;;;5051365;28;20653;-58
2021/08/29 04:31:59;;;;;;;8.77;6.93;;;16.70;57.30;;;;;;5052196;28;20255;-47
2021/08/29 04:34:29;;;;;;;7.60;6.75;;;16.60;57.40;;;;;;5051625;28;20231;-48
2021/08/29 04:36:59;;;;;;;9.73;7.78;;;16.60;57.40;;;;;;5052769;28;20286;-58
2021/08/29 04:39:30;;;;;;;9.98;8.43;;;16.70;57.50;;;;;;5052269;28;20261;-57
2021/08/29 04:42:00;;;;;;;11.70;8.95;;;16.60;57.60;;;;;;5052243;28;20195;-60
2021/08/29 04:44:31;;;;;;;10.68;8.05;;;16.70;57.70;;;;;;5051572;28;20188;-56
2021/08/29 04:47:03;;;;;;;8.85;7.50;;;16.70;57.60;;;;;;5050794;28;20257;-58
2021/08/29 04:49:34;;;;;;;9.68;7.70;;;16.70;57.60;;;;;;5051503;28;20254;-59
2021/08/29 04:52:04;;;;;;;9.93;7.82;;;16.70;57.60;;;;;;5050904;28;20621;-56
2021/08/29 04:54:34;;;;;;;9.70;7.75;;;16.70;57.60;;;;;;5052073;28;20219;-53
2021/08/29 04:57:05;;;;;;;10.13;8.13;;;16.70;57.60;;;;;;5050312;28;20293;-51
2021/08/29 04:59:35;;;;;;;10.52;7.50;;;16.70;57.60;;;;;;5051102;28;20251;-58
2021/08/29 05:02:08;;;;;;;8.60;7.55;;;16.70;57.70;;;;;;5052194;28;20234;-54
2021/08/29 05:04:38;;;;;;;8.95;7.57;;;16.70;57.60;;;;;;5051171;28;20238;-51
2021/08/29 05:07:09;;;;;;;9.00;8.05;;;16.70;57.60;;;;;;5051388;28;20602;-50
2021/08/29 05:09:39;;;;;;;9.48;7.63;;;16.70;57.60;;;;;;5049441;28;20635;-53
2021/08/29 05:12:10;;;;;;;10.15;7.95;;;16.70;57.60;;;;;;5029836;28;20231;-50
2021/08/29 05:14:40;;;;;;;10.68;8.50;;;16.70;57.60;;;;;;5030882;28;20228;-45
2021/08/29 05:17:13;;;;;;;8.75;7.38;;;16.70;57.70;;;;;;5030462;28;20289;-53
2021/08/29 05:19:43;;;;;;;9.35;7.60;;;16.70;57.80;;;;;;5031425;28;20312;-49
2021/08/29 05:22:14;;;;;;;11.07;8.43;;;16.70;57.60;;;;;;5036888;28;20295;-46
2021/08/29 05:24:44;;;;;;;8.68;7.25;;;16.70;57.70;;;;;;5050618;28;20234;-46
2021/08/29 05:27:15;;;;;;;10.10;7.82;;;16.70;57.60;;;;;;5050609;28;20191;-48
2021/08/29 05:29:45;;;;;;;8.75;7.13;;;16.70;57.60;;;;;;5051915;28;20249;-45
2021/08/29 05:32:17;;;;;;;10.55;8.15;;;16.70;57.60;;;;;;5050156;28;20255;-45
2021/08/29 05:34:48;;;;;;;9.32;7.60;;;16.70;57.60;;;;;;5050715;28;20274;-47
2021/08/29 05:37:18;;;;;;;10.48;7.63;;;16.70;57.60;;;;;;5050884;28;20200;-48
2021/08/29 05:39:49;;;;;;;7.88;6.82;;;16.70;57.60;;;;;;5051013;28;20260;-47
2021/08/29 05:42:19;;;;;;;9.18;7.50;;;16.60;57.50;;;;;;5050811;28;20668;-50
2021/08/29 05:44:50;;;;;;;9.07;7.95;;;16.60;57.50;;;;;;5050835;28;20199;-48
2021/08/29 05:47:22;;;;;;;9.70;7.28;;;16.70;57.50;;;;;;5045468;28;20196;-46
2021/08/29 05:49:53;;;;;;;9.45;7.53;;;16.60;57.30;;;;;;5030038;28;20204;-47
2021/08/29 05:52:23;;;;;;;8.82;7.50;;;16.70;57.50;;;;;;5030084;28;20224;-47
2021/08/29 05:54:53;;;;;;;9.68;7.57;;;16.60;57.40;;;;;;5029979;28;20353;-47
2021/08/29 05:57:25;;;;;;;8.38;7.22;;;16.60;57.40;;;;;;5033452;28;20559;-49
2021/08/29 05:59:55;;;;;;;8.82;6.68;;;16.60;57.40;;;;;;5029918;28;20621;-47
2021/08/29 06:02:28;;;;;;;7.18;6.18;;;16.60;57.40;;;;;;5040489;23;20841;-55
2021/08/29 06:04:59;;;;;;;8.15;6.47;;;16.60;57.30;;;;;;4991068;28;20255;-46
2021/08/29 06:07:29;;;;;;;9.52;7.13;;;16.60;57.30;;;;;;4990551;28;20263;-46
2021/08/29 06:10:00;;;;;;;8.10;7.05;;;16.60;57.30;;;;;;4991177;28;20260;-57
2021/08/29 06:12:30;;;;;;;8.93;7.68;;;16.60;57.30;;;;;;4989689;28;20308;-56
2021/08/29 06:15:00;;;;;;;8.65;7.25;;;16.60;57.30;;;;;;4991452;28;20244;-56
2021/08/29 06:17:33;;;;;;;9.32;8.32;;;16.60;57.30;;;;;;4990827;28;20229;-50
2021/08/29 06:20:03;;;;;;;9.07;7.65;;;16.60;57.30;;;;;;4990420;28;20264;-59
2021/08/29 06:22:34;;;;;;;9.43;7.50;;;16.60;57.30;;;;;;4990698;28;20248;-59
2021/08/29 06:25:04;;;;;;;9.45;7.90;;;16.60;57.30;;;;;;4991207;28;20229;-55
2021/08/29 06:27:34;;;;;;;10.48;7.93;;;16.60;57.20;;;;;;4991098;28;20666;-59
2021/08/29 06:30:05;;;;;;;9.15;7.57;;;16.60;57.30;;;;;;4990595;28;20288;-60
2021/08/29 06:32:37;;;;;;;11.18;8.02;;;16.60;57.30;;;;;;4990921;28;20706;-55
2021/08/29 06:35:08;;;;;;;8.45;7.43;;;16.60;57.20;;;;;;4985452;28;20630;-59
2021/08/29 06:37:39;;;;;;;8.40;7.28;;;16.60;57.20;;;;;;4972039;28;20222;-57
2021/08/29 06:40:10;;;;;;;9.93;8.18;;;16.60;57.20;;;;;;4971330;28;20245;-53
2021/08/29 06:42:41;;;;;;;10.18;8.05;;;16.50;57.30;;;;;;4970921;28;20285;-58
2021/08/29 06:45:12;;;;;;;9.02;7.72;;;16.60;57.40;;;;;;4970737;28;20264;-58
2021/08/29 06:47:44;;;;;;;9.63;7.75;;;16.50;57.30;;;;;;4970300;28;20246;-56
2021/08/29 06:50:15;;;;;;;9.40;7.57;;;16.50;57.30;;;;;;4971432;28;20230;-55
2021/08/29 06:52:45;;;;;;;11.02;7.97;;;16.60;57.30;;;;;;4970738;28;20316;-57
2021/08/29 06:55:15;;;;;;;9.73;8.00;;;16.60;57.40;;;;;;4971375;28;20236;-54
2021/08/29 06:57:46;;;;;;;10.25;8.25;;;16.50;57.50;;;;;;4971145;28;20260;-58
2021/08/29 07:00:17;;;;;;;10.05;7.70;;;16.50;57.50;;;;;;4971445;28;20248;-60
2021/08/29 07:02:49;;;;;;;11.45;8.15;;;16.50;57.40;;;;;;4989277;23;20549;-58
2021/08/29 07:05:19;;;;;;;9.68;7.68;;;16.50;57.40;;;;;;5010766;28;20721;-58
2021/08/29 07:07:50;;;;;;;9.98;8.15;;;16.60;57.40;;;;;;5009868;28;20229;-57
2021/08/29 07:10:20;;;;;;;8.32;7.18;;;16.50;57.40;;;;;;5009984;28;20232;-52
2021/08/29 07:12:51;;;;;;;9.82;8.02;;;16.50;57.40;;;;;;5009447;28;20314;-55
2021/08/29 07:15:21;;;;;;;9.43;7.82;;;16.50;57.40;;;;;;5008847;28;20284;-55
2021/08/29 07:17:53;;;;;;;10.02;7.75;;;16.50;57.40;;;;;;5010488;28;20304;-55
2021/08/29 07:20:24;;;;;;;9.68;7.95;;;16.50;57.40;;;;;;5009848;28;20249;-52
2021/08/29 07:22:54;;;;;;;10.13;8.27;;;16.50;57.40;;;;;;5010685;28;20711;-52
2021/08/29 07:25:25;;;;;;;10.75;8.52;;;16.50;57.40;;;;;;5013463;28;20599;-52
2021/08/29 07:27:55;;;;;;;9.70;7.85;;;16.50;57.50;;;;;;5013741;28;20268;-50
2021/08/29 07:30:26;;;;;;;10.20;7.93;;;16.50;57.40;;;;;;5014236;28;20232;-53
2021/08/29 07:32:58;;;;;;;9.60;8.23;;;16.50;57.50;;;;;;5013942;28;20268;-53
2021/08/29 07:35:29;;;;;;;9.95;8.35;;;16.50;57.40;;;;;;5014811;28;20255;-53
2021/08/29 07:37:59;;;;;;;10.23;7.90;;;16.50;57.40;;;;;;5014090;28;20248;-52
2021/08/29 07:40:30;;;;;;;10.57;7.90;;;16.50;57.40;;;;;;5013885;28;20201;-49
2021/08/29 07:43:00;;;;;;;10.18;7.93;;;16.50;57.40;;;;;;5013521;28;20291;-51
2021/08/29 07:45:31;;;;;;;8.52;7.63;;;16.50;57.50;;;;;;5013879;28;20228;-53
2021/08/29 07:48:03;;;;;;;9.40;7.65;;;16.50;57.60;;;;;;5013945;28;20252;-58
2021/08/29 07:50:33;;;;;;;9.65;8.23;;;16.50;57.90;;;;;;5012770;28;20220;-53
2021/08/29 07:53:04;;;;;;;9.60;7.90;;;16.50;57.90;;;;;;5013975;28;20260;-54
2021/08/29 07:55:34;;;;;;;9.60;7.53;;;16.50;57.90;;;;;;5014111;28;20288;-52
2021/08/29 07:58:05;;;;;;;10.20;8.10;;;16.50;58.40;;;;;;5013460;28;20248;-56
2021/08/29 08:00:36;;;;;;;9.88;7.90;;;16.50;57.80;;;;;;5014101;28;20237;-51
2021/08/29 08:03:08;;;;;;;9.95;8.38;;;16.50;57.70;;;;;;5020347;22;20226;-57
2021/08/29 08:05:38;;;;;;;10.25;7.93;;;16.50;57.70;;;;;;4993213;28;20236;-54
2021/08/29 08:08:09;;;;;;;9.80;7.30;;;16.50;57.70;;;;;;4992998;28;20268;-52
2021/08/29 08:10:39;;;;;;;8.65;7.35;;;16.50;57.70;;;;;;4993642;28;20457;-59
2021/08/29 08:13:10;;;;;;;10.30;8.25;;;16.50;57.60;;;;;;4993678;28;20656;-59
2021/08/29 08:15:40;;;;;;;8.93;7.90;;;16.50;57.50;;;;;;4993513;28;20299;-57
2021/08/29 08:18:12;;;;;;;8.43;7.18;;;16.50;57.50;;;;;;4993479;28;20656;-60
2021/08/29 08:20:43;;;;;;;9.52;7.35;;;16.40;57.40;;;;;;4993925;28;20229;-59
2021/08/29 08:23:13;;;;;;;7.70;6.80;;;16.50;57.50;;;;;;4994301;28;20260;-60
2021/08/29 08:25:44;;;;;;;9.77;7.57;;;16.40;57.40;;;;;;4994222;28;21040;-60
2021/08/29 08:28:14;;;;;;;10.35;7.97;;;16.40;57.40;;;;;;4993406;28;20272;-59
2021/08/29 08:30:44;;;;;;;10.50;7.45;;;16.40;57.40;;;;;;4995817;28;20706;-57
2021/08/29 08:33:17;;;;;;;10.57;7.60;;;16.40;57.40;;;;;;4993198;28;20658;-59
2021/08/29 08:35:47;;;;;;;9.80;7.70;;;16.40;57.40;;;;;;4992257;28;20638;-58
2021/08/29 08:38:18;;;;;;;10.00;7.93;;;16.40;57.50;;;;;;4993480;28;20264;-57
2021/08/29 08:40:48;;;;;;;9.52;7.50;;;16.40;57.40;;;;;;4993484;28;20241;-57
2021/08/29 08:43:18;;;;;;;8.02;7.20;;;16.40;57.40;;;;;;4991233;28;20240;-59
2021/08/29 08:45:49;;;;;;;8.63;7.43;;;16.40;57.50;;;;;;4989822;28;20236;-59
2021/08/29 08:48:22;;;;;;;8.80;6.70;;;16.40;57.50;;;;;;4992034;28;20249;-56
2021/08/29 08:50:52;;;;;;;9.85;7.43;;;16.40;57.50;;;;;;4992045;28;20236;-47
2021/08/29 08:53:25;;;;;;;8.95;7.50;;;16.40;57.40;;;;;;4992324;28;20316;-52
2021/08/29 08:55:56;;;;;;;8.65;7.07;;;16.40;57.50;;;;;;4993060;28;20296;-59
2021/08/29 08:58:26;;;;;;;8.70;7.70;;;16.40;57.40;;;;;;4992046;28;20218;-55
2021/08/29 09:00:57;;;;;;;8.82;7.50;;;16.40;57.40;;;;;;4991624;28;20229;-42
2021/08/29 09:03:30;;;;;;;8.52;7.10;;;16.40;57.40;;;;;;5019436;23;20238;-51
2021/08/29 09:06:00;;;;;;;8.55;7.10;;;16.40;57.30;;;;;;5032023;28;20205;-52
2021/08/29 09:08:30;;;;;;;8.70;7.32;;;16.40;57.40;;;;;;5031639;28;20243;-53
2021/08/29 09:11:01;;;;;;;8.18;7.30;;;16.30;57.40;;;;;;5030978;28;20200;-48
2021/08/29 09:13:47;;;;;;;9.15;7.15;;;16.30;57.40;;;;;;5031169;28;20326;-49
2021/08/29 09:16:18;;;;;;;8.20;7.13;;;16.30;57.40;;;;;;5030721;28;20236;-47
2021/08/29 09:18:53;;;;;;;10.25;7.25;;;16.40;57.40;;;;;;5030988;28;20254;-46
2021/08/29 09:21:24;;;;;;;8.32;6.97;;;16.30;57.50;;;;;;5030780;28;20223;-50
2021/08/29 09:23:55;;;;;;;8.93;6.68;;;16.30;57.40;;;;;;5031213;28;20300;-46
2021/08/29 09:26:26;;;;;;;7.03;6.10;;;16.30;57.40;;;;;;5030630;28;20283;-48
2021/08/29 09:28:58;;;;;;;8.27;6.82;;;16.30;57.40;;;;;;5031005;28;20263;-55
2021/08/29 09:31:42;;;;;;;7.90;6.10;;;16.30;57.40;;;;;;5030787;28;20231;-52
2021/08/29 09:34:15;;;;;;;7.68;6.47;;;16.30;57.40;;;;;;5030735;28;20454;-52
2021/08/29 09:36:45;;;;;;;7.63;6.75;;;16.30;57.40;;;;;;5031273;28;20228;-55
2021/08/29 09:39:16;;;;;;;7.20;6.03;;;16.30;57.40;;;;;;5029875;28;20244;-49
2021/08/29 09:41:47;;;;;;;7.38;6.60;;;16.30;57.30;;;;;;5030944;28;20669;-47
2021/08/29 09:44:18;;;;;;;7.32;6.18;;;16.30;57.30;;;;;;5030022;28;20200;-47
2021/08/29 09:46:56;;;;;;;6.88;6.00;;;16.30;57.30;;;;;;5030072;28;20246;-52
2021/08/29 09:49:28;;;;;;;6.68;5.68;;;16.30;57.40;;;;;;5030385;28;20656;-50
2021/08/29 09:52:00;;;;;;;7.88;6.25;;;16.30;57.40;;;;;;5029162;28;20295;-46
2021/08/29 09:54:32;;;;;;;7.82;5.95;;;16.20;57.30;;;;;;5010566;28;20294;-48
2021/08/29 09:57:02;;;;;;;7.10;6.07;;;16.30;57.30;;;;;;5010159;28;20193;-48
2021/08/29 09:59:43;;;;;;;7.20;6.13;;;16.20;57.30;;;;;;5009918;28;20256;-51
2021/08/29 10:05:16;;;;;;;6.70;6.03;;;16.20;57.30;;;;;;5006988;28;20224;-47
2021/08/29 10:08:06;;;;;;;7.70;5.82;;;16.20;57.30;;;;;;5010815;28;20631;-41
2021/08/29 10:10:38;;;;;;;6.93;5.70;;;16.20;57.30;;;;;;5010094;28;20633;-60
2021/08/29 10:13:09;;;;;;;5.93;5.05;;;16.30;57.40;;;;;;5011243;28;20381;-55
2021/08/29 10:15:39;;;;;;;7.57;5.82;;;16.20;57.30;;;;;;5008702;28;20221;-61
2021/08/29 10:18:10;;;;;;;6.10;5.50;;;16.20;57.30;;;;;;5010415;28;20252;-59
2021/08/29 10:20:43;;;;;;;7.25;5.93;;;16.20;57.30;;;;;;5011817;28;20605;-61
2021/08/29 10:23:13;;;;;;;6.78;5.53;;;16.20;57.30;;;;;;5010120;28;20740;-61
2021/08/29 10:25:43;;;;;;;6.03;5.20;;;16.20;57.30;;;;;;5009878;28;20245;-56
2021/08/29 10:28:15;;;;;;;7.97;5.60;;;16.20;57.30;;;;;;5007893;28;20248;-61
2021/08/29 10:30:46;;;;;;;6.95;5.45;;;16.20;57.30;;;;;;5011088;28;20232;-56
2021/08/29 10:33:16;;;;;;;6.63;5.93;;;16.20;57.30;;;;;;5010468;28;20256;-61
2021/08/29 10:35:48;;;;;;;5.80;4.95;;;16.20;57.30;;;;;;5010016;28;20239;-61
2021/08/29 10:38:19;;;;;;;7.20;5.70;;;16.20;57.30;;;;;;5010294;28;20256;-61
2021/08/29 10:40:50;;;;;;;6.90;5.38;;;16.20;57.30;;;;;;5011837;28;20621;-61
2021/08/29 10:43:21;;;;;;;5.55;4.95;;;16.20;57.30;;;;;;5010951;28;20619;-59
2021/08/29 10:45:51;;;;;;;6.28;5.45;;;16.20;57.30;;;;;;5010743;28;20712;-61
2021/08/29 10:48:21;;;;;;;5.97;5.38;;;16.20;57.30;;;;;;5009570;28;20709;-59
2021/08/29 10:50:54;;;;;;;6.85;4.93;;;16.10;57.20;;;;;;5009284;28;20200;-48
2021/08/29 10:53:33;;;;;;;6.07;5.18;;;16.10;57.20;;;;;;5010541;28;20259;-62
2021/08/29 10:56:35;;;;;;;6.53;5.07;;;16.20;57.30;;;;;;5009223;28;20291;-53
2021/08/29 10:59:29;;;;;;;5.60;4.70;;;16.20;57.30;;;;;;4988958;28;20342;-52
2021/08/29 11:02:13;;;;;;;5.18;4.35;;;16.10;57.20;;;;;;5006121;28;20208;-61
2021/08/29 11:04:47;;;;;;;6.15;4.75;;;16.10;57.20;;;;;;5014516;28;20255;-62
2021/08/29 11:07:45;;;;;;;6.50;5.28;;;16.10;57.20;;;;;;5014165;28;20508;-61
2021/08/29 11:10:16;;;;;;;6.80;5.40;;;16.10;57.30;;;;;;5014594;28;20236;-62
2021/08/29 11:12:46;;;;;;;5.13;4.63;;;16.10;57.20;;;;;;5014191;28;20325;-63
2021/08/29 11:15:17;;;;;;;5.32;4.82;;;16.10;57.20;;;;;;5012900;28;20243;-59
2021/08/29 11:18:00;;;;;;;5.57;4.60;;;16.10;57.30;;;;;;5014490;28;20275;-58
2021/08/29 11:20:31;;;;;;;5.22;4.60;;;16.00;57.20;;;;;;5015018;28;20197;-65
2021/08/29 11:23:03;;;;;;;5.10;4.53;;;16.00;57.30;;;;;;5013671;28;20239;-61
2021/08/29 11:25:33;;;;;;;5.18;4.68;;;16.00;57.30;;;;;;5013832;28;20312;-62
2021/08/29 11:28:05;;;;;;;10.52;5.10;;;16.10;57.30;;;;;;5012365;28;20248;-62
2021/08/29 11:30:56;;;;;;;17.23;6.10;;;16.10;57.20;;;;;;5014170;28;20233;-55
2021/08/29 11:33:29;;;;;;;26.63;5.97;;;16.00;57.20;;;;;;5009312;28;20311;-58
2021/08/29 11:36:00;;;;;;;18.98;5.43;;;16.00;57.20;;;;;;5013613;28;20280;-62
2021/08/29 11:38:39;;;;;;;14.55;5.40;;;16.00;57.20;;;;;;5013589;28;20248;-61
2021/08/29 11:41:15;;;;;;;23.10;5.20;;;16.00;57.20;;;;;;5014302;28;20200;-62
2021/08/29 11:43:46;;;;;;;16.77;5.32;;;16.00;57.20;;;;;;5014457;28;20228;-60
2021/08/29 11:46:18;;;;;;;9.52;4.68;;;16.00;57.30;;;;;;5014405;28;20292;-61
2021/08/29 11:48:52;;;;;;;13.05;4.75;;;16.00;57.30;;;;;;5014236;28;20307;-61
2021/08/29 11:51:32;;;;;;;9.05;5.13;;;16.00;57.20;;;;;;5024703;28;20191;-61
2021/08/29 11:54:05;;;;;;;12.00;4.90;;;16.00;57.30;;;;;;5033357;28;20259;-62
2021/08/29 11:56:35;;;;;;;12.55;4.95;;;16.00;57.20;;;;;;5033364;28;20567;-62
2021/08/29 11:59:07;;;;;;;10.27;4.50;;;16.00;57.20;;;;;;5033538;28;20289;-62
2021/08/29 12:01:38;;;;;;;8.35;4.55;;;16.00;57.20;;;;;;5025605;28;20205;-63
2021/08/29 12:04:09;;;;;;;13.68;5.10;;;16.00;57.20;;;;;;5036512;23;20662;-50
2021/08/29 12:06:41;;;;;;;7.05;4.30;;;16.00;57.20;;;;;;5033414;28;20232;-47
2021/08/29 12:09:19;;;;;;;5.93;3.42;;;16.00;57.70;;;;;;5031835;28;20209;-46
2021/08/29 12:11:51;;;;;;;5.47;3.90;;;16.00;58.20;;;;;;5033090;28;20649;-48
2021/08/29 12:14:21;;;;;;;6.53;4.25;;;16.00;58.20;;;;;;5033195;28;20235;-46
2021/08/29 12:16:53;;;;;;;8.82;4.28;;;16.00;58.10;;;;;;5033270;28;20240;-47
2021/08/29 12:19:25;;;;;;;9.18;4.53;;;16.00;58.00;;;;;;5033269;28;20681;-48
2021/08/29 12:21:56;;;;;;;4.45;3.63;;;16.00;57.90;;;;;;5032944;28;20242;-47
2021/08/29 12:24:30;;;;;;;5.30;3.95;;;16.00;57.90;;;;;;5032735;28;20199;-47
2021/08/29 12:27:04;;;;;;;6.82;3.83;;;15.90;57.80;;;;;;5032523;28;20192;-48
2021/08/29 12:29:43;;;;;;;7.78;3.95;;;15.90;57.80;;;;;;5033024;28;20255;-47
2021/08/29 12:32:15;;;;;;;7.03;4.10;;;15.90;57.70;;;;;;5033170;28;20625;-46
2021/08/29 12:34:45;;;;;;;5.85;3.85;;;15.90;57.70;;;;;;5032969;28;20256;-49
2021/08/29 12:37:16;;;;;;;4.65;3.50;;;15.90;57.60;;;;;;5032708;28;20196;-47
2021/08/29 12:39:58;;;;;;;8.15;3.80;;;15.90;57.60;;;;;;5032935;28;20294;-50
2021/08/29 12:42:29;;;;;;;7.00;4.00;;;15.90;57.60;;;;;;5032978;28;20232;-52
2021/08/29 12:44:59;;;;;;;4.68;3.65;;;15.90;57.60;;;;;;5032828;28;20200;-47
2021/08/29 12:47:30;;;;;;;6.72;4.07;;;15.90;57.60;;;;;;5032891;28;20207;-46
2021/08/29 12:50:01;;;;;;;5.68;3.83;;;15.90;57.50;;;;;;5023222;28;20221;-47
2021/08/29 12:52:33;;;;;;;7.20;3.42;;;15.90;57.50;;;;;;5012852;28;20513;-50
2021/08/29 12:55:05;;;;;;;6.68;4.18;;;15.90;57.50;;;;;;5012759;28;20228;-48
2021/08/29 12:57:36;;;;;;;5.80;3.33;;;15.80;57.50;;;;;;5012581;28;20604;-49
2021/08/29 13:00:07;;;;;;;4.53;3.05;;;15.80;57.50;;;;;;5012825;28;20188;-47
2021/08/29 13:05:07;;;;;;;5.63;3.65;;;15.80;57.40;;;;;;5009826;28;20427;-60
2021/08/29 13:07:50;;;;;;;5.18;3.65;;;15.80;57.50;;;;;;5012151;28;20628;-60
2021/08/29 13:10:23;;;;;;;5.57;3.70;;;15.80;57.50;;;;;;5011954;28;20625;-59
2021/08/29 13:13:09;;;;;;;4.35;2.80;;;15.80;57.50;;;;;;5012365;28;20197;-60